sensor_id;sensor_type;location;lat;lon;timestamp;P1;durP1;ratioP1;P2;durP2;ratioP2
50821;SDS011;36794;51.212;6.980;2023-10-19T00:00:45;11.80;;;7.87;;
50821;SDS011;36794;51.212;6.980;2023-10-19T00:03:13;10.27;;;7.43;;
50821;SDS011;36794;51.212;6.980;2023-10-19T00:05:39;12.77;;;7.50;;
50821;SDS011;36794;51.212;6.980;2023-10-19T00:08:10;11.90;;;8.27;;
50821;SDS011;36794;51.212;6.980;2023-10-19T00:10:39;12.73;;;7.67;;
50821;SDS011;36794;51.212;6.980;2023-10-19T00:13:07;10.83;;;7.93;;
50821;SDS011;36794;51.212;6.980;2023-10-19T00:15:34;10.90;;;7.53;;
50821;SDS011;36794;51.212;6.980;2023-10-19T00:18:05;10.03;;;7.43;;
50821;SDS011;36794;51.212;6.980;2023-10-19T00:20:40;11.53;;;7.87;;
50821;SDS011;36794;51.212;6.980;2023-10-19T00:23:06;14.53;;;8.37;;
50821;SDS011;36794;51.212;6.980;2023-10-19T00:25:35;13.10;;;9.00;;
50821;SDS011;36794;51.212;6.980;2023-10-19T00:28:06;12.87;;;8.07;;
50821;SDS011;36794;51.212;6.980;2023-10-19T00:30:33;11.50;;;8.20;;
50821;SDS011;36794;51.212;6.980;2023-10-19T00:33:04;14.43;;;8.40;;
50821;SDS011;36794;51.212;6.980;2023-10-19T00:35:34;10.37;;;7.63;;
50821;SDS011;36794;51.212;6.980;2023-10-19T00:38:01;14.27;;;8.87;;
50821;SDS011;36794;51.212;6.980;2023-10-19T00:43:12;13.17;;;9.07;;
50821;SDS011;36794;51.212;6.980;2023-10-19T00:45:42;13.73;;;9.33;;
50821;SDS011;36794;51.212;6.980;2023-10-19T00:48:11;13.60;;;9.27;;
50821;SDS011;36794;51.212;6.980;2023-10-19T00:50:38;15.63;;;9.23;;
50821;SDS011;36794;51.212;6.980;2023-10-19T00:53:05;14.07;;;9.83;;
50821;SDS011;36794;51.212;6.980;2023-10-19T00:55:33;14.43;;;8.60;;
50821;SDS011;36794;51.212;6.980;2023-10-19T00:58:01;13.50;;;8.90;;
50821;SDS011;36794;51.212;6.980;2023-10-19T01:00:34;16.20;;;9.30;;
50821;SDS011;36794;51.212;6.980;2023-10-19T01:03:08;14.85;;;10.02;;
50821;SDS011;36794;51.212;6.980;2023-10-19T01:05:38;20.53;;;9.87;;
50821;SDS011;36794;51.212;6.980;2023-10-19T01:08:04;13.40;;;9.53;;
50821;SDS011;36794;51.212;6.980;2023-10-19T01:11:03;15.70;;;10.03;;
50821;SDS011;36794;51.212;6.980;2023-10-19T01:13:29;16.50;;;10.17;;
50821;SDS011;36794;51.212;6.980;2023-10-19T01:15:59;14.20;;;9.50;;
50821;SDS011;36794;51.212;6.980;2023-10-19T01:18:25;13.27;;;9.50;;
50821;SDS011;36794;51.212;6.980;2023-10-19T01:20:57;15.87;;;9.63;;
50821;SDS011;36794;51.212;6.980;2023-10-19T01:23:27;13.97;;;9.90;;
50821;SDS011;36794;51.212;6.980;2023-10-19T01:25:54;15.80;;;9.97;;
50821;SDS011;36794;51.212;6.980;2023-10-19T01:28:21;15.23;;;10.37;;
50821;SDS011;36794;51.212;6.980;2023-10-19T01:30:53;18.17;;;9.93;;
50821;SDS011;36794;51.212;6.980;2023-10-19T01:33:19;12.73;;;9.77;;
50821;SDS011;36794;51.212;6.980;2023-10-19T01:35:45;17.50;;;10.37;;
50821;SDS011;36794;51.212;6.980;2023-10-19T01:40:59;14.97;;;9.67;;
50821;SDS011;36794;51.212;6.980;2023-10-19T01:43:29;15.03;;;10.10;;
50821;SDS011;36794;51.212;6.980;2023-10-19T01:45:56;15.63;;;10.00;;
50821;SDS011;36794;51.212;6.980;2023-10-19T01:48:23;17.07;;;10.20;;
50821;SDS011;36794;51.212;6.980;2023-10-19T01:51:03;15.83;;;9.17;;
50821;SDS011;36794;51.212;6.980;2023-10-19T01:53:30;15.13;;;9.70;;
50821;SDS011;36794;51.212;6.980;2023-10-19T01:55:56;13.60;;;9.33;;
50821;SDS011;36794;51.212;6.980;2023-10-19T01:58:26;16.30;;;9.43;;
50821;SDS011;36794;51.212;6.980;2023-10-19T02:00:52;14.33;;;9.60;;
50821;SDS011;36794;51.212;6.980;2023-10-19T02:03:25;14.97;;;9.40;;
50821;SDS011;36794;51.212;6.980;2023-10-19T02:05:59;14.17;;;8.97;;
50821;SDS011;36794;51.212;6.980;2023-10-19T02:08:31;15.13;;;9.30;;
50821;SDS011;36794;51.212;6.980;2023-10-19T02:10:57;14.43;;;9.17;;
50821;SDS011;36794;51.212;6.980;2023-10-19T02:13:26;13.23;;;8.30;;
50821;SDS011;36794;51.212;6.980;2023-10-19T02:15:52;12.50;;;8.80;;
50821;SDS011;36794;51.212;6.980;2023-10-19T02:18:18;12.30;;;8.80;;
50821;SDS011;36794;51.212;6.980;2023-10-19T02:20:44;13.30;;;8.50;;
50821;SDS011;36794;51.212;6.980;2023-10-19T02:23:13;11.57;;;8.13;;
50821;SDS011;36794;51.212;6.980;2023-10-19T02:25:39;12.43;;;8.00;;
50821;SDS011;36794;51.212;6.980;2023-10-19T02:28:07;13.47;;;8.80;;
50821;SDS011;36794;51.212;6.980;2023-10-19T02:30:34;12.87;;;8.10;;
50821;SDS011;36794;51.212;6.980;2023-10-19T02:33:00;12.10;;;7.40;;
50821;SDS011;36794;51.212;6.980;2023-10-19T02:35:28;11.90;;;8.00;;
50821;SDS011;36794;51.212;6.980;2023-10-19T02:37:54;14.10;;;7.70;;
50821;SDS011;36794;51.212;6.980;2023-10-19T02:40:21;15.20;;;8.10;;
50821;SDS011;36794;51.212;6.980;2023-10-19T02:42:49;11.57;;;7.40;;
50821;SDS011;36794;51.212;6.980;2023-10-19T02:45:21;10.93;;;7.27;;
50821;SDS011;36794;51.212;6.980;2023-10-19T02:47:48;12.40;;;7.37;;
50821;SDS011;36794;51.212;6.980;2023-10-19T02:50:15;13.83;;;7.67;;
50821;SDS011;36794;51.212;6.980;2023-10-19T02:52:41;12.03;;;8.20;;
50821;SDS011;36794;51.212;6.980;2023-10-19T02:55:08;14.60;;;7.47;;
50821;SDS011;36794;51.212;6.980;2023-10-19T02:57:35;13.17;;;7.20;;
50821;SDS011;36794;51.212;6.980;2023-10-19T03:00:04;11.27;;;7.17;;
50821;SDS011;36794;51.212;6.980;2023-10-19T03:02:35;11.50;;;7.30;;
50821;SDS011;36794;51.212;6.980;2023-10-19T03:05:01;13.07;;;7.40;;
50821;SDS011;36794;51.212;6.980;2023-10-19T03:07:34;11.53;;;6.60;;
50821;SDS011;36794;51.212;6.980;2023-10-19T03:10:00;13.10;;;7.17;;
50821;SDS011;36794;51.212;6.980;2023-10-19T03:12:27;11.50;;;7.10;;
50821;SDS011;36794;51.212;6.980;2023-10-19T03:14:53;12.40;;;6.40;;
50821;SDS011;36794;51.212;6.980;2023-10-19T03:17:19;11.37;;;7.00;;
50821;SDS011;36794;51.212;6.980;2023-10-19T03:19:45;11.17;;;6.33;;
50821;SDS011;36794;51.212;6.980;2023-10-19T03:22:11;9.70;;;5.97;;
50821;SDS011;36794;51.212;6.980;2023-10-19T03:24:37;9.67;;;5.63;;
50821;SDS011;36794;51.212;6.980;2023-10-19T03:27:11;10.90;;;5.57;;
50821;SDS011;36794;51.212;6.980;2023-10-19T03:29:42;10.95;;;4.93;;
50821;SDS011;36794;51.212;6.980;2023-10-19T03:32:11;8.23;;;4.93;;
50821;SDS011;36794;51.212;6.980;2023-10-19T03:34:37;7.27;;;4.40;;
50821;SDS011;36794;51.212;6.980;2023-10-19T03:37:04;7.33;;;4.43;;
50821;SDS011;36794;51.212;6.980;2023-10-19T03:39:37;8.17;;;4.27;;
50821;SDS011;36794;51.212;6.980;2023-10-19T03:42:04;8.27;;;4.27;;
50821;SDS011;36794;51.212;6.980;2023-10-19T03:44:39;6.90;;;4.70;;
50821;SDS011;36794;51.212;6.980;2023-10-19T03:47:14;6.80;;;4.37;;
50821;SDS011;36794;51.212;6.980;2023-10-19T03:49:44;6.43;;;4.03;;
50821;SDS011;36794;51.212;6.980;2023-10-19T03:52:11;9.97;;;4.50;;
50821;SDS011;36794;51.212;6.980;2023-10-19T03:54:37;9.97;;;4.50;;
50821;SDS011;36794;51.212;6.980;2023-10-19T03:57:07;5.37;;;3.77;;
50821;SDS011;36794;51.212;6.980;2023-10-19T03:59:54;6.33;;;3.80;;
50821;SDS011;36794;51.212;6.980;2023-10-19T04:02:27;9.13;;;4.30;;
50821;SDS011;36794;51.212;6.980;2023-10-19T04:04:54;5.73;;;3.60;;
50821;SDS011;36794;51.212;6.980;2023-10-19T04:07:22;8.37;;;3.83;;
50821;SDS011;36794;51.212;6.980;2023-10-19T04:09:52;5.63;;;3.10;;
50821;SDS011;36794;51.212;6.980;2023-10-19T04:12:42;7.10;;;3.60;;
50821;SDS011;36794;51.212;6.980;2023-10-19T04:15:09;7.53;;;3.83;;
50821;SDS011;36794;51.212;6.980;2023-10-19T04:17:41;4.97;;;2.63;;
50821;SDS011;36794;51.212;6.980;2023-10-19T04:20:08;8.33;;;3.00;;
50821;SDS011;36794;51.212;6.980;2023-10-19T04:22:44;4.63;;;2.77;;
50821;SDS011;36794;51.212;6.980;2023-10-19T04:25:10;5.47;;;2.97;;
50821;SDS011;36794;51.212;6.980;2023-10-19T04:27:44;4.27;;;2.83;;
50821;SDS011;36794;51.212;6.980;2023-10-19T04:30:11;7.07;;;2.57;;
50821;SDS011;36794;51.212;6.980;2023-10-19T04:32:41;6.87;;;3.00;;
50821;SDS011;36794;51.212;6.980;2023-10-19T04:35:07;7.00;;;3.00;;
50821;SDS011;36794;51.212;6.980;2023-10-19T04:37:39;3.67;;;2.53;;
50821;SDS011;36794;51.212;6.980;2023-10-19T04:40:07;5.20;;;2.60;;
50821;SDS011;36794;51.212;6.980;2023-10-19T04:42:33;6.07;;;2.60;;
50821;SDS011;36794;51.212;6.980;2023-10-19T04:45:01;5.73;;;2.67;;
50821;SDS011;36794;51.212;6.980;2023-10-19T04:47:27;8.67;;;3.07;;
50821;SDS011;36794;51.212;6.980;2023-10-19T04:49:53;10.97;;;3.57;;
50821;SDS011;36794;51.212;6.980;2023-10-19T04:52:20;4.10;;;2.60;;
50821;SDS011;36794;51.212;6.980;2023-10-19T04:54:46;6.90;;;2.83;;
50821;SDS011;36794;51.212;6.980;2023-10-19T04:57:12;8.00;;;3.30;;
50821;SDS011;36794;51.212;6.980;2023-10-19T04:59:38;6.70;;;2.93;;
50821;SDS011;36794;51.212;6.980;2023-10-19T05:02:04;8.13;;;3.10;;
50821;SDS011;36794;51.212;6.980;2023-10-19T05:04:39;5.07;;;2.73;;
50821;SDS011;36794;51.212;6.980;2023-10-19T05:07:06;6.60;;;3.03;;
50821;SDS011;36794;51.212;6.980;2023-10-19T05:09:36;5.13;;;2.50;;
50821;SDS011;36794;51.212;6.980;2023-10-19T05:12:04;9.13;;;3.30;;
50821;SDS011;36794;51.212;6.980;2023-10-19T05:14:34;5.13;;;3.00;;
50821;SDS011;36794;51.212;6.980;2023-10-19T05:17:01;6.73;;;3.17;;
50821;SDS011;36794;51.212;6.980;2023-10-19T05:19:29;7.13;;;2.90;;
50821;SDS011;36794;51.212;6.980;2023-10-19T05:21:55;8.53;;;2.97;;
50821;SDS011;36794;51.212;6.980;2023-10-19T05:24:21;6.10;;;2.90;;
50821;SDS011;36794;51.212;6.980;2023-10-19T05:26:51;6.07;;;2.90;;
50821;SDS011;36794;51.212;6.980;2023-10-19T05:29:18;6.70;;;3.30;;
50821;SDS011;36794;51.212;6.980;2023-10-19T05:31:44;7.90;;;3.17;;
50821;SDS011;36794;51.212;6.980;2023-10-19T05:34:10;8.60;;;3.13;;
50821;SDS011;36794;51.212;6.980;2023-10-19T05:36:36;6.87;;;3.00;;
50821;SDS011;36794;51.212;6.980;2023-10-19T05:39:04;3.90;;;2.63;;
50821;SDS011;36794;51.212;6.980;2023-10-19T05:41:32;5.40;;;2.97;;
50821;SDS011;36794;51.212;6.980;2023-10-19T05:43:59;3.77;;;2.77;;
50821;SDS011;36794;51.212;6.980;2023-10-19T05:46:25;8.03;;;3.20;;
50821;SDS011;36794;51.212;6.980;2023-10-19T05:48:53;6.77;;;3.50;;
50821;SDS011;36794;51.212;6.980;2023-10-19T05:51:21;9.33;;;3.30;;
50821;SDS011;36794;51.212;6.980;2023-10-19T05:53:47;8.47;;;3.20;;
50821;SDS011;36794;51.212;6.980;2023-10-19T05:56:13;6.47;;;3.13;;
50821;SDS011;36794;51.212;6.980;2023-10-19T05:58:42;5.50;;;3.43;;
50821;SDS011;36794;51.212;6.980;2023-10-19T06:01:08;6.70;;;3.00;;
50821;SDS011;36794;51.212;6.980;2023-10-19T06:03:34;5.40;;;2.87;;
50821;SDS011;36794;51.212;6.980;2023-10-19T06:06:00;5.73;;;3.13;;
50821;SDS011;36794;51.212;6.980;2023-10-19T06:08:26;5.43;;;2.77;;
50821;SDS011;36794;51.212;6.980;2023-10-19T06:10:53;5.70;;;2.80;;
50821;SDS011;36794;51.212;6.980;2023-10-19T06:13:20;5.15;;;2.70;;
50821;SDS011;36794;51.212;6.980;2023-10-19T06:15:47;7.27;;;2.63;;
50821;SDS011;36794;51.212;6.980;2023-10-19T06:18:14;5.07;;;2.60;;
50821;SDS011;36794;51.212;6.980;2023-10-19T06:20:46;6.30;;;2.90;;
50821;SDS011;36794;51.212;6.980;2023-10-19T06:23:13;4.50;;;2.77;;
50821;SDS011;36794;51.212;6.980;2023-10-19T06:25:39;3.63;;;2.57;;
50821;SDS011;36794;51.212;6.980;2023-10-19T06:28:08;7.03;;;2.93;;
50821;SDS011;36794;51.212;6.980;2023-10-19T06:30:36;3.67;;;2.30;;
50821;SDS011;36794;51.212;6.980;2023-10-19T06:33:02;7.87;;;2.30;;
50821;SDS011;36794;51.212;6.980;2023-10-19T06:35:29;4.83;;;2.20;;
50821;SDS011;36794;51.212;6.980;2023-10-19T06:37:56;5.82;;;2.50;;
50821;SDS011;36794;51.212;6.980;2023-10-19T06:40:24;5.13;;;2.33;;
50821;SDS011;36794;51.212;6.980;2023-10-19T06:42:51;5.23;;;2.90;;
50821;SDS011;36794;51.212;6.980;2023-10-19T06:45:17;5.83;;;2.80;;
50821;SDS011;36794;51.212;6.980;2023-10-19T06:47:44;7.70;;;2.50;;
50821;SDS011;36794;51.212;6.980;2023-10-19T06:50:15;3.40;;;2.50;;
50821;SDS011;36794;51.212;6.980;2023-10-19T06:52:42;4.97;;;2.55;;
50821;SDS011;36794;51.212;6.980;2023-10-19T06:55:09;7.28;;;2.50;;
50821;SDS011;36794;51.212;6.980;2023-10-19T06:58:04;9.20;;;2.43;;
50821;SDS011;36794;51.212;6.980;2023-10-19T07:00:30;8.57;;;2.97;;
50821;SDS011;36794;51.212;6.980;2023-10-19T07:02:57;5.17;;;2.80;;
50821;SDS011;36794;51.212;6.980;2023-10-19T07:05:27;8.27;;;2.90;;
50821;SDS011;36794;51.212;6.980;2023-10-19T07:07:56;7.43;;;2.80;;
50821;SDS011;36794;51.212;6.980;2023-10-19T07:10:24;6.63;;;3.00;;
50821;SDS011;36794;51.212;6.980;2023-10-19T07:12:52;5.37;;;3.07;;
50821;SDS011;36794;51.212;6.980;2023-10-19T07:15:18;7.28;;;2.95;;
50821;SDS011;36794;51.212;6.980;2023-10-19T07:17:45;11.57;;;3.10;;
50821;SDS011;36794;51.212;6.980;2023-10-19T07:20:12;6.10;;;2.60;;
50821;SDS011;36794;51.212;6.980;2023-10-19T07:23:07;6.43;;;3.15;;
50821;SDS011;36794;51.212;6.980;2023-10-19T07:25:51;6.13;;;3.08;;
50821;SDS011;36794;51.212;6.980;2023-10-19T07:28:19;10.52;;;3.08;;
50821;SDS011;36794;51.212;6.980;2023-10-19T07:30:47;7.28;;;3.17;;
50821;SDS011;36794;51.212;6.980;2023-10-19T07:33:14;8.82;;;3.13;;
50821;SDS011;36794;51.212;6.980;2023-10-19T07:35:43;6.57;;;3.70;;
50821;SDS011;36794;51.212;6.980;2023-10-19T07:38:12;7.70;;;3.00;;
50821;SDS011;36794;51.212;6.980;2023-10-19T07:40:39;11.90;;;3.58;;
50821;SDS011;36794;51.212;6.980;2023-10-19T07:43:05;8.77;;;3.90;;
50821;SDS011;36794;51.212;6.980;2023-10-19T07:45:31;10.00;;;3.78;;
50821;SDS011;36794;51.212;6.980;2023-10-19T07:47:59;6.18;;;2.70;;
50821;SDS011;36794;51.212;6.980;2023-10-19T07:50:31;7.72;;;3.13;;
50821;SDS011;36794;51.212;6.980;2023-10-19T07:52:58;10.30;;;3.53;;
50821;SDS011;36794;51.212;6.980;2023-10-19T07:55:24;5.20;;;2.33;;
50821;SDS011;36794;51.212;6.980;2023-10-19T07:57:50;6.18;;;2.72;;
50821;SDS011;36794;51.212;6.980;2023-10-19T08:00:16;8.30;;;2.90;;
50821;SDS011;36794;51.212;6.980;2023-10-19T08:02:43;7.50;;;2.90;;
50821;SDS011;36794;51.212;6.980;2023-10-19T08:05:16;8.80;;;2.83;;
50821;SDS011;36794;51.212;6.980;2023-10-19T08:07:43;6.53;;;2.67;;
50821;SDS011;36794;51.212;6.980;2023-10-19T08:10:11;5.88;;;2.72;;
50821;SDS011;36794;51.212;6.980;2023-10-19T08:12:38;4.25;;;2.28;;
50821;SDS011;36794;51.212;6.980;2023-10-19T08:15:10;5.68;;;2.40;;
50821;SDS011;36794;51.212;6.980;2023-10-19T08:17:37;5.03;;;2.47;;
50821;SDS011;36794;51.212;6.980;2023-10-19T08:20:05;9.70;;;3.10;;
50821;SDS011;36794;51.212;6.980;2023-10-19T08:22:34;5.38;;;2.60;;
50821;SDS011;36794;51.212;6.980;2023-10-19T08:25:01;4.97;;;2.38;;
50821;SDS011;36794;51.212;6.980;2023-10-19T08:27:29;5.38;;;2.25;;
50821;SDS011;36794;51.212;6.980;2023-10-19T08:29:55;6.55;;;2.67;;
50821;SDS011;36794;51.212;6.980;2023-10-19T08:32:21;5.57;;;2.60;;
50821;SDS011;36794;51.212;6.980;2023-10-19T08:34:47;7.60;;;2.90;;
50821;SDS011;36794;51.212;6.980;2023-10-19T08:37:13;4.25;;;2.38;;
50821;SDS011;36794;51.212;6.980;2023-10-19T08:39:39;6.60;;;2.67;;
50821;SDS011;36794;51.212;6.980;2023-10-19T08:42:05;6.20;;;2.03;;
50821;SDS011;36794;51.212;6.980;2023-10-19T08:44:32;6.63;;;2.00;;
50821;SDS011;36794;51.212;6.980;2023-10-19T08:46:59;7.43;;;2.40;;
50821;SDS011;36794;51.212;6.980;2023-10-19T08:49:25;7.85;;;2.58;;
50821;SDS011;36794;51.212;6.980;2023-10-19T08:51:52;8.75;;;2.30;;
50821;SDS011;36794;51.212;6.980;2023-10-19T08:54:19;4.93;;;2.20;;
50821;SDS011;36794;51.212;6.980;2023-10-19T08:56:45;8.82;;;2.33;;
50821;SDS011;36794;51.212;6.980;2023-10-19T08:59:12;8.00;;;2.08;;
50821;SDS011;36794;51.212;6.980;2023-10-19T09:01:40;5.00;;;1.90;;
50821;SDS011;36794;51.212;6.980;2023-10-19T09:04:09;6.90;;;2.78;;
50821;SDS011;36794;51.212;6.980;2023-10-19T09:06:35;7.53;;;2.88;;
50821;SDS011;36794;51.212;6.980;2023-10-19T09:09:11;8.52;;;2.28;;
50821;SDS011;36794;51.212;6.980;2023-10-19T09:11:50;5.97;;;2.35;;
50821;SDS011;36794;51.212;6.980;2023-10-19T09:14:39;8.63;;;3.25;;
50821;SDS011;36794;51.212;6.980;2023-10-19T09:17:08;12.20;;;3.13;;
50821;SDS011;36794;51.212;6.980;2023-10-19T09:19:42;9.07;;;2.95;;
50821;SDS011;36794;51.212;6.980;2023-10-19T09:22:08;6.70;;;2.42;;
50821;SDS011;36794;51.212;6.980;2023-10-19T09:24:47;5.75;;;1.85;;
50821;SDS011;36794;51.212;6.980;2023-10-19T09:27:16;7.68;;;1.90;;
50821;SDS011;36794;51.212;6.980;2023-10-19T09:29:42;4.18;;;1.95;;
50821;SDS011;36794;51.212;6.980;2023-10-19T09:32:08;10.07;;;1.95;;
50821;SDS011;36794;51.212;6.980;2023-10-19T09:34:35;5.85;;;1.73;;
50821;SDS011;36794;51.212;6.980;2023-10-19T09:37:03;9.50;;;2.15;;
50821;SDS011;36794;51.212;6.980;2023-10-19T09:39:32;5.55;;;1.35;;
50821;SDS011;36794;51.212;6.980;2023-10-19T09:42:02;4.15;;;1.13;;
50821;SDS011;36794;51.212;6.980;2023-10-19T09:44:34;5.90;;;1.30;;
50821;SDS011;36794;51.212;6.980;2023-10-19T09:47:06;8.43;;;1.33;;
50821;SDS011;36794;51.212;6.980;2023-10-19T09:49:35;7.07;;;1.23;;
50821;SDS011;36794;51.212;6.980;2023-10-19T09:52:02;9.43;;;1.42;;
50821;SDS011;36794;51.212;6.980;2023-10-19T09:57:01;7.60;;;1.33;;
50821;SDS011;36794;51.212;6.980;2023-10-19T09:59:35;6.35;;;1.40;;
50821;SDS011;36794;51.212;6.980;2023-10-19T10:04:32;5.95;;;1.35;;
50821;SDS011;36794;51.212;6.980;2023-10-19T10:07:00;7.25;;;1.58;;
50821;SDS011;36794;51.212;6.980;2023-10-19T10:09:29;6.00;;;1.23;;
50821;SDS011;36794;51.212;6.980;2023-10-19T10:11:55;7.47;;;1.23;;
50821;SDS011;36794;51.212;6.980;2023-10-19T10:14:22;9.40;;;1.70;;
50821;SDS011;36794;51.212;6.980;2023-10-19T10:17:03;7.03;;;1.33;;
50821;SDS011;36794;51.212;6.980;2023-10-19T10:19:30;7.57;;;1.02;;
50821;SDS011;36794;51.212;6.980;2023-10-19T10:22:09;7.20;;;1.10;;
50821;SDS011;36794;51.212;6.980;2023-10-19T10:24:42;5.57;;;0.88;;
50821;SDS011;36794;51.212;6.980;2023-10-19T10:27:09;8.85;;;1.40;;
50821;SDS011;36794;51.212;6.980;2023-10-19T10:29:53;8.85;;;1.23;;
50821;SDS011;36794;51.212;6.980;2023-10-19T10:32:52;14.73;;;1.50;;
50821;SDS011;36794;51.212;6.980;2023-10-19T10:40:23;7.07;;;1.20;;
50821;SDS011;36794;51.212;6.980;2023-10-19T10:42:50;6.47;;;1.23;;
50821;SDS011;36794;51.212;6.980;2023-10-19T10:45:30;6.63;;;1.08;;
50821;SDS011;36794;51.212;6.980;2023-10-19T10:47:56;7.93;;;1.13;;
50821;SDS011;36794;51.212;6.980;2023-10-19T10:50:22;7.30;;;1.48;;
50821;SDS011;36794;51.212;6.980;2023-10-19T10:52:49;8.85;;;1.35;;
50821;SDS011;36794;51.212;6.980;2023-10-19T10:55:18;6.50;;;1.33;;
50821;SDS011;36794;51.212;6.980;2023-10-19T10:57:44;8.18;;;1.52;;
50821;SDS011;36794;51.212;6.980;2023-10-19T11:00:11;8.02;;;1.42;;
50821;SDS011;36794;51.212;6.980;2023-10-19T11:02:41;8.30;;;1.27;;
50821;SDS011;36794;51.212;6.980;2023-10-19T11:05:15;8.13;;;1.20;;
50821;SDS011;36794;51.212;6.980;2023-10-19T11:08:02;7.25;;;1.33;;
50821;SDS011;36794;51.212;6.980;2023-10-19T11:10:28;7.85;;;1.20;;
50821;SDS011;36794;51.212;6.980;2023-10-19T11:13:01;11.52;;;1.42;;
50821;SDS011;36794;51.212;6.980;2023-10-19T11:15:27;12.18;;;1.10;;
50821;SDS011;36794;51.212;6.980;2023-10-19T11:17:53;8.82;;;1.30;;
50821;SDS011;36794;51.212;6.980;2023-10-19T11:20:23;11.60;;;1.38;;
50821;SDS011;36794;51.212;6.980;2023-10-19T11:22:51;9.63;;;1.65;;
50821;SDS011;36794;51.212;6.980;2023-10-19T11:25:18;7.00;;;0.90;;
50821;SDS011;36794;51.212;6.980;2023-10-19T11:27:44;8.88;;;1.60;;
50821;SDS011;36794;51.212;6.980;2023-10-19T11:30:12;10.40;;;1.40;;
50821;SDS011;36794;51.212;6.980;2023-10-19T11:32:38;8.57;;;1.80;;
50821;SDS011;36794;51.212;6.980;2023-10-19T11:35:04;6.15;;;0.93;;
50821;SDS011;36794;51.212;6.980;2023-10-19T11:37:45;8.20;;;1.27;;
50821;SDS011;36794;51.212;6.980;2023-10-19T11:40:11;7.30;;;1.30;;
50821;SDS011;36794;51.212;6.980;2023-10-19T11:42:37;6.32;;;1.40;;
50821;SDS011;36794;51.212;6.980;2023-10-19T11:45:03;4.95;;;0.88;;
50821;SDS011;36794;51.212;6.980;2023-10-19T11:47:31;11.90;;;1.42;;
50821;SDS011;36794;51.212;6.980;2023-10-19T11:49:57;5.40;;;1.27;;
50821;SDS011;36794;51.212;6.980;2023-10-19T11:52:23;12.43;;;1.60;;
50821;SDS011;36794;51.212;6.980;2023-10-19T11:54:49;5.45;;;1.05;;
50821;SDS011;36794;51.212;6.980;2023-10-19T11:57:15;7.65;;;1.10;;
50821;SDS011;36794;51.212;6.980;2023-10-19T11:59:41;6.97;;;1.42;;
50821;SDS011;36794;51.212;6.980;2023-10-19T12:02:06;11.40;;;1.27;;
50821;SDS011;36794;51.212;6.980;2023-10-19T12:04:34;7.65;;;1.35;;
50821;SDS011;36794;51.212;6.980;2023-10-19T12:07:01;4.65;;;0.98;;
50821;SDS011;36794;51.212;6.980;2023-10-19T12:09:28;9.75;;;1.20;;
50821;SDS011;36794;51.212;6.980;2023-10-19T12:11:55;5.95;;;0.95;;
50821;SDS011;36794;51.212;6.980;2023-10-19T12:14:21;9.30;;;1.10;;
50821;SDS011;36794;51.212;6.980;2023-10-19T12:16:47;9.82;;;1.70;;
50821;SDS011;36794;51.212;6.980;2023-10-19T12:19:14;8.18;;;1.33;;
50821;SDS011;36794;51.212;6.980;2023-10-19T12:21:40;5.50;;;0.95;;
50821;SDS011;36794;51.212;6.980;2023-10-19T12:24:07;11.23;;;1.58;;
50821;SDS011;36794;51.212;6.980;2023-10-19T12:26:33;7.63;;;1.70;;
50821;SDS011;36794;51.212;6.980;2023-10-19T12:28:59;7.88;;;1.13;;
50821;SDS011;36794;51.212;6.980;2023-10-19T12:31:25;6.85;;;1.55;;
50821;SDS011;36794;51.212;6.980;2023-10-19T12:33:51;13.55;;;1.70;;
50821;SDS011;36794;51.212;6.980;2023-10-19T12:36:18;6.93;;;1.30;;
50821;SDS011;36794;51.212;6.980;2023-10-19T12:38:53;7.75;;;1.40;;
50821;SDS011;36794;51.212;6.980;2023-10-19T12:41:20;8.32;;;2.00;;
50821;SDS011;36794;51.212;6.980;2023-10-19T12:43:47;7.05;;;1.35;;
50821;SDS011;36794;51.212;6.980;2023-10-19T12:46:13;6.45;;;1.17;;
50821;SDS011;36794;51.212;6.980;2023-10-19T12:48:40;7.68;;;1.60;;
50821;SDS011;36794;51.212;6.980;2023-10-19T12:51:09;8.00;;;1.40;;
50821;SDS011;36794;51.212;6.980;2023-10-19T12:53:38;7.38;;;1.45;;
50821;SDS011;36794;51.212;6.980;2023-10-19T12:56:05;7.32;;;1.23;;
50821;SDS011;36794;51.212;6.980;2023-10-19T12:58:32;7.85;;;1.40;;
50821;SDS011;36794;51.212;6.980;2023-10-19T13:00:58;8.18;;;1.33;;
50821;SDS011;36794;51.212;6.980;2023-10-19T13:03:24;8.07;;;1.48;;
50821;SDS011;36794;51.212;6.980;2023-10-19T13:05:56;8.13;;;1.50;;
50821;SDS011;36794;51.212;6.980;2023-10-19T13:08:23;12.88;;;1.83;;
50821;SDS011;36794;51.212;6.980;2023-10-19T13:10:52;8.20;;;1.38;;
50821;SDS011;36794;51.212;6.980;2023-10-19T13:13:19;11.85;;;1.35;;
50821;SDS011;36794;51.212;6.980;2023-10-19T13:15:48;8.90;;;0.90;;
50821;SDS011;36794;51.212;6.980;2023-10-19T13:18:14;9.32;;;1.48;;
50821;SDS011;36794;51.212;6.980;2023-10-19T13:20:52;9.98;;;1.77;;
50821;SDS011;36794;51.212;6.980;2023-10-19T13:23:19;6.55;;;1.58;;
50821;SDS011;36794;51.212;6.980;2023-10-19T13:25:49;7.38;;;1.52;;
50821;SDS011;36794;51.212;6.980;2023-10-19T13:28:15;7.78;;;1.58;;
50821;SDS011;36794;51.212;6.980;2023-10-19T13:33:12;8.45;;;1.73;;
50821;SDS011;36794;51.212;6.980;2023-10-19T13:35:39;8.88;;;1.50;;
50821;SDS011;36794;51.212;6.980;2023-10-19T13:38:05;11.25;;;1.60;;
50821;SDS011;36794;51.212;6.980;2023-10-19T13:40:33;8.40;;;1.50;;
50821;SDS011;36794;51.212;6.980;2023-10-19T13:42:59;9.55;;;1.70;;
50821;SDS011;36794;51.212;6.980;2023-10-19T13:45:25;9.38;;;1.92;;
50821;SDS011;36794;51.212;6.980;2023-10-19T13:47:51;13.63;;;1.75;;
50821;SDS011;36794;51.212;6.980;2023-10-19T13:50:21;11.30;;;1.42;;
50821;SDS011;36794;51.212;6.980;2023-10-19T13:52:52;8.45;;;1.92;;
50821;SDS011;36794;51.212;6.980;2023-10-19T13:55:18;7.28;;;1.88;;
50821;SDS011;36794;51.212;6.980;2023-10-19T13:57:45;9.68;;;1.80;;
50821;SDS011;36794;51.212;6.980;2023-10-19T14:00:12;10.55;;;1.50;;
50821;SDS011;36794;51.212;6.980;2023-10-19T14:02:45;7.65;;;1.23;;
50821;SDS011;36794;51.212;6.980;2023-10-19T14:05:14;8.65;;;2.03;;
50821;SDS011;36794;51.212;6.980;2023-10-19T14:07:40;6.68;;;1.40;;
50821;SDS011;36794;51.212;6.980;2023-10-19T14:10:07;10.43;;;1.90;;
50821;SDS011;36794;51.212;6.980;2023-10-19T14:12:33;10.75;;;1.80;;
50821;SDS011;36794;51.212;6.980;2023-10-19T14:14:59;10.00;;;2.13;;
50821;SDS011;36794;51.212;6.980;2023-10-19T14:17:25;5.43;;;1.40;;
50821;SDS011;36794;51.212;6.980;2023-10-19T14:19:51;8.73;;;1.27;;
50821;SDS011;36794;51.212;6.980;2023-10-19T14:22:18;8.38;;;2.45;;
50821;SDS011;36794;51.212;6.980;2023-10-19T14:24:44;8.02;;;1.70;;
50821;SDS011;36794;51.212;6.980;2023-10-19T14:27:10;8.02;;;1.80;;
50821;SDS011;36794;51.212;6.980;2023-10-19T14:29:36;9.35;;;2.38;;
50821;SDS011;36794;51.212;6.980;2023-10-19T14:32:02;5.70;;;1.73;;
50821;SDS011;36794;51.212;6.980;2023-10-19T14:34:28;10.15;;;2.05;;
50821;SDS011;36794;51.212;6.980;2023-10-19T14:36:54;9.32;;;1.77;;
50821;SDS011;36794;51.212;6.980;2023-10-19T14:39:20;10.98;;;2.53;;
50821;SDS011;36794;51.212;6.980;2023-10-19T14:41:46;9.32;;;2.83;;
50821;SDS011;36794;51.212;6.980;2023-10-19T14:44:12;10.85;;;1.80;;
50821;SDS011;36794;51.212;6.980;2023-10-19T14:46:39;7.45;;;1.40;;
50821;SDS011;36794;51.212;6.980;2023-10-19T14:49:05;8.57;;;1.52;;
50821;SDS011;36794;51.212;6.980;2023-10-19T14:51:31;9.25;;;1.40;;
50821;SDS011;36794;51.212;6.980;2023-10-19T14:53:57;5.63;;;1.55;;
50821;SDS011;36794;51.212;6.980;2023-10-19T14:56:23;6.63;;;1.50;;
50821;SDS011;36794;51.212;6.980;2023-10-19T14:58:49;9.00;;;1.80;;
50821;SDS011;36794;51.212;6.980;2023-10-19T15:01:25;9.40;;;1.70;;
50821;SDS011;36794;51.212;6.980;2023-10-19T15:03:51;7.65;;;1.67;;
50821;SDS011;36794;51.212;6.980;2023-10-19T15:06:17;7.35;;;1.75;;
50821;SDS011;36794;51.212;6.980;2023-10-19T15:08:43;7.28;;;1.60;;